Time;durP1;ratioP1;P1;durP2;ratioP2;P2;SDS_P1;SDS_P2;PMS_P1;PMS_P2;Temp;Humidity;BMP_temperature;BMP_pressure;BME280_temperature;BME280_humidity;BME280_pressure;Samples;Min_cycle;Max_cycle;Signal;HPM_P1;HPM_P2
2022/11/26 00:00:38;;;;;;;18.23;6.05;;;6.00;99.90;;;;;;5073115;28;20052;-69
2022/11/26 00:03:03;;;;;;;20.95;6.75;;;6.00;99.90;;;;;;5072698;28;20041;-69
2022/11/26 00:05:30;;;;;;;21.42;8.27;;;5.90;99.90;;;;;;5072686;28;20048;-69
2022/11/26 00:07:58;;;;;;;15.88;6.15;;;6.00;99.90;;;;;;5072534;28;20049;-69
2022/11/26 00:10:27;;;;;;;16.48;6.60;;;5.90;99.90;;;;;;5072845;28;20040;-69
2022/11/26 00:12:53;;;;;;;17.83;6.85;;;5.90;99.90;;;;;;5072531;28;20044;-69
2022/11/26 00:15:26;;;;;;;19.13;6.60;;;5.90;99.90;;;;;;5072725;28;20068;-69
2022/11/26 00:17:52;;;;;;;19.65;7.50;;;5.90;99.90;;;;;;5072486;28;20048;-69
2022/11/26 00:20:20;;;;;;;20.70;7.88;;;5.90;99.90;;;;;;5072661;28;20553;-69
2022/11/26 00:22:51;;;;;;;18.85;6.03;;;5.90;99.90;;;;;;5072326;28;20055;-69
2022/11/26 00:25:31;;;;;;;21.63;6.25;;;5.90;99.90;;;;;;5072360;28;20066;-69
2022/11/26 00:27:58;;;;;;;18.98;6.68;;;5.90;99.90;;;;;;5073504;28;20112;-69
2022/11/26 00:30:26;;;;;;;14.13;6.03;;;5.80;99.90;;;;;;5072252;28;20047;-69
2022/11/26 00:32:53;;;;;;;18.00;6.28;;;5.80;99.90;;;;;;5055498;28;20051;-69
2022/11/26 00:35:20;;;;;;;22.98;7.78;;;5.80;99.90;;;;;;5072196;28;20123;-69
2022/11/26 00:37:53;;;;;;;20.60;6.85;;;5.80;99.90;;;;;;5073924;28;20044;-69
2022/11/26 00:40:30;;;;;;;;;;;5.80;99.90;;;;;;5072844;28;20048;-69
2022/11/26 00:42:56;;;;;;;20.30;7.28;;;5.70;99.90;;;;;;5072080;28;20399;-69
2022/11/26 00:45:29;;;;;;;19.42;7.82;;;5.70;99.90;;;;;;5071969;28;20040;-69
2022/11/26 00:48:00;;;;;;;20.67;7.15;;;5.80;99.90;;;;;;5055293;28;20089;-69
2022/11/26 00:50:27;;;;;;;25.10;7.72;;;5.80;99.90;;;;;;5072075;28;20052;-69
2022/11/26 00:52:55;;;;;;;23.75;7.25;;;5.80;99.90;;;;;;5071909;28;20484;-69
2022/11/26 00:55:32;;;;;;;16.23;6.20;;;5.70;99.90;;;;;;5071946;28;20477;-69
2022/11/26 00:57:58;;;;;;;20.05;7.45;;;5.80;99.90;;;;;;5071910;28;20036;-69
2022/11/26 01:00:26;;;;;;;20.65;8.35;;;5.80;99.90;;;;;;5072139;28;20183;-69
2022/11/26 01:02:52;;;;;;;19.38;7.95;;;5.70;99.90;;;;;;5072050;28;20385;-69
2022/11/26 01:05:18;;;;;;;21.10;7.93;;;5.70;99.90;;;;;;5071838;28;20047;-69
2022/11/26 01:07:44;;;;;;;31.20;9.27;;;5.70;99.90;;;;;;5072988;28;20044;-69
2022/11/26 01:10:27;;;;;;;26.30;7.95;;;5.70;99.90;;;;;;5071322;28;20040;-69
2022/11/26 01:12:54;;;;;;;18.27;7.82;;;5.70;99.90;;;;;;5071716;28;20516;-69
2022/11/26 01:15:22;;;;;;;16.55;6.88;;;5.70;99.90;;;;;;5071736;28;20083;-69
2022/11/26 01:17:48;;;;;;;21.92;7.70;;;5.70;99.90;;;;;;5071702;28;20402;-69
2022/11/26 01:20:20;;;;;;;24.20;7.82;;;5.70;99.90;;;;;;5071953;28;20538;-69
2022/11/26 01:22:46;;;;;;;15.55;6.93;;;5.70;99.90;;;;;;5071615;28;20118;-69
2022/11/26 01:25:12;;;;;;;20.58;6.30;;;5.70;99.90;;;;;;5071857;28;20386;-69
2022/11/26 01:27:37;;;;;;;27.65;8.60;;;5.60;99.90;;;;;;5071494;28;20043;-69
2022/11/26 01:30:12;;;;;;;23.88;8.35;;;5.60;99.90;;;;;;5071597;28;20090;-69
2022/11/26 01:32:37;;;;;;;21.15;7.72;;;5.60;99.90;;;;;;5071541;28;20052;-69
2022/11/26 01:35:03;;;;;;;16.23;7.47;;;5.60;99.90;;;;;;5071805;28;20036;-69
2022/11/26 01:37:29;;;;;;;21.02;7.95;;;5.60;99.90;;;;;;5071493;28;20050;-69
2022/11/26 01:39:54;;;;;;;20.55;8.73;;;5.50;99.90;;;;;;5071428;28;20047;-69
2022/11/26 01:42:25;;;;;;;21.52;7.90;;;5.50;99.90;;;;;;5071398;28;20076;-69
2022/11/26 01:44:51;;;;;;;20.73;7.60;;;5.50;99.90;;;;;;5071335;28;20067;-69
2022/11/26 01:47:26;;;;;;;23.00;8.15;;;5.50;99.90;;;;;;5071373;28;20076;-69
2022/11/26 01:50:29;;;;;;;24.45;8.05;;;5.50;99.90;;;;;;5071470;28;20041;-69
2022/11/26 01:53:00;;;;;;;23.27;7.13;;;5.50;99.90;;;;;;5071610;28;20067;-69
2022/11/26 01:55:35;;;;;;;17.17;8.05;;;5.40;99.90;;;;;;5072752;28;20048;-69
2022/11/26 01:58:01;;;;;;;22.25;8.18;;;5.40;99.90;;;;;;5071341;28;20076;-69
2022/11/26 02:00:26;;;;;;;30.88;9.27;;;5.40;99.90;;;;;;5071305;28;20076;-69
2022/11/26 02:02:52;;;;;;;18.45;7.70;;;5.40;99.90;;;;;;5071236;28;20083;-69
2022/11/26 02:05:23;;;;;;;19.73;7.50;;;5.40;99.90;;;;;;5071268;28;20080;-69
2022/11/26 02:07:50;;;;;;;18.58;7.90;;;5.40;99.90;;;;;;5071206;28;20057;-69
2022/11/26 02:10:16;;;;;;;22.80;8.45;;;5.40;99.90;;;;;;5071469;28;20040;-69
2022/11/26 02:12:42;;;;;;;16.40;7.20;;;5.40;99.90;;;;;;5071336;28;20408;-69
2022/11/26 02:15:09;;;;;;;21.50;8.50;;;5.30;99.90;;;;;;5071114;28;20119;-69
2022/11/26 02:17:50;;;;;;;19.40;7.70;;;5.30;99.90;;;;;;5054441;28;20045;-69
2022/11/26 02:20:34;;;;;;;22.15;9.15;;;5.40;99.90;;;;;;5071095;28;20120;-69
2022/11/26 02:23:24;;;;;;;21.63;7.55;;;5.40;99.90;;;;;;5072455;28;20527;-69
2022/11/26 02:26:04;;;;;;;20.67;8.55;;;5.30;99.90;;;;;;5074643;28;20044;-69
2022/11/26 02:28:44;;;;;;;19.05;8.02;;;5.30;99.90;;;;;;5074496;28;20501;-69
2022/11/26 02:31:28;;;;;;;21.17;8.35;;;5.30;99.90;;;;;;5074853;28;20041;-69
2022/11/26 02:34:21;;;;;;;19.08;7.20;;;5.30;99.90;;;;;;5074712;28;20032;-69
2022/11/26 02:36:56;;;;;;;23.00;8.65;;;5.30;99.90;;;;;;5074489;28;20040;-69
2022/11/26 02:39:24;;;;;;;26.25;8.07;;;5.20;99.90;;;;;;5074393;28;20489;-69
2022/11/26 02:41:59;;;;;;;19.58;7.55;;;5.20;99.90;;;;;;5075566;28;20052;-69
2022/11/26 02:44:31;;;;;;;29.40;8.50;;;5.30;99.90;;;;;;5074508;28;20059;-69
2022/11/26 02:47:01;;;;;;;22.17;8.33;;;5.20;99.90;;;;;;5074165;28;20116;-69
2022/11/26 02:49:28;;;;;;;22.23;8.77;;;5.30;99.90;;;;;;5074554;28;20036;-69
2022/11/26 02:51:58;;;;;;;21.67;7.93;;;5.20;99.90;;;;;;5074162;28;20047;-69
2022/11/26 02:54:26;;;;;;;25.02;8.40;;;5.20;99.90;;;;;;5073982;28;20053;-69
2022/11/26 02:56:53;;;;;;;19.60;7.00;;;5.20;99.90;;;;;;5074352;28;20040;-69
2022/11/26 02:59:19;;;;;;;17.83;6.40;;;5.20;99.90;;;;;;5074041;28;20072;-69
2022/11/26 03:01:58;;;;;;;19.45;7.75;;;5.30;99.90;;;;;;5074220;28;20055;-69
2022/11/26 03:04:31;;;;;;;20.23;7.07;;;5.30;99.90;;;;;;5073896;28;20036;-69
2022/11/26 03:07:02;;;;;;;24.38;8.25;;;5.30;99.90;;;;;;5073887;28;20097;-68
2022/11/26 03:09:39;;;;;;;21.15;7.25;;;5.20;99.90;;;;;;5074335;28;20051;-68
2022/11/26 03:12:04;;;;;;;19.50;6.35;;;5.20;99.90;;;;;;5057089;28;20036;-68
2022/11/26 03:14:30;;;;;;;23.90;8.60;;;5.20;99.90;;;;;;5073650;28;20086;-69
2022/11/26 03:16:55;;;;;;;20.13;6.80;;;5.20;99.90;;;;;;5073686;28;20078;-69
2022/11/26 03:19:21;;;;;;;19.25;6.65;;;5.20;99.90;;;;;;5074916;28;20040;-69
2022/11/26 03:21:46;;;;;;;22.05;7.25;;;5.20;99.90;;;;;;5073890;28;20437;-69
2022/11/26 03:24:12;;;;;;;23.63;6.85;;;5.10;99.90;;;;;;5073422;28;20540;-69
2022/11/26 03:26:37;;;;;;;14.63;6.80;;;5.10;99.90;;;;;;5073547;28;20055;-69
2022/11/26 03:29:03;;;;;;;13.05;5.93;;;5.10;99.90;;;;;;5073302;28;20044;-69
2022/11/26 03:31:29;;;;;;;16.05;6.65;;;5.10;99.90;;;;;;5073417;28;20044;-69
2022/11/26 03:33:54;;;;;;;15.77;6.32;;;5.00;99.90;;;;;;5072913;28;20041;-69
2022/11/26 03:36:20;;;;;;;19.15;6.90;;;5.00;99.90;;;;;;5073298;28;20045;-69
2022/11/26 03:38:45;;;;;;;14.95;6.50;;;5.00;99.90;;;;;;5073501;28;20052;-69
2022/11/26 03:41:11;;;;;;;12.63;5.43;;;4.90;99.90;;;;;;5073181;28;20032;-69
2022/11/26 03:43:36;;;;;;;17.15;6.25;;;4.90;99.90;;;;;;5073080;28;20123;-69
2022/11/26 03:46:02;;;;;;;18.13;6.22;;;4.90;99.90;;;;;;5073005;28;20417;-69
2022/11/26 03:48:27;;;;;;;13.93;6.60;;;4.90;99.90;;;;;;5072994;28;20102;-69
2022/11/26 03:50:53;;;;;;;17.92;6.38;;;4.90;99.90;;;;;;5074240;28;20054;-69
2022/11/26 03:53:18;;;;;;;20.80;8.07;;;4.90;99.90;;;;;;5072833;28;20037;-69
2022/11/26 03:55:44;;;;;;;19.70;7.60;;;4.90;99.90;;;;;;5072864;28;20040;-69
2022/11/26 03:58:10;;;;;;;18.98;7.28;;;4.90;99.90;;;;;;5073122;28;20048;-69
2022/11/26 04:00:35;;;;;;;22.88;7.35;;;4.90;99.90;;;;;;5072789;28;20501;-69
2022/11/26 04:03:01;;;;;;;26.92;7.43;;;4.90;99.90;;;;;;5072638;28;20043;-69
2022/11/26 04:05:26;;;;;;;20.92;6.88;;;4.90;99.90;;;;;;5072710;28;20037;-69
2022/11/26 04:07:52;;;;;;;17.30;6.97;;;4.90;99.90;;;;;;5072558;28;20047;-69
2022/11/26 04:10:17;;;;;;;21.45;6.68;;;4.90;99.90;;;;;;5072606;28;20037;-69
2022/11/26 04:12:43;;;;;;;17.92;7.03;;;4.90;99.90;;;;;;5072699;28;20051;-69
2022/11/26 04:15:09;;;;;;;19.25;6.95;;;4.90;99.90;;;;;;5072766;28;20397;-69
2022/11/26 04:17:34;;;;;;;21.98;7.85;;;4.80;99.90;;;;;;5072774;28;20052;-69
2022/11/26 04:20:00;;;;;;;17.58;6.65;;;4.90;99.90;;;;;;5072688;28;20378;-69
2022/11/26 04:22:26;;;;;;;23.50;6.70;;;4.90;99.90;;;;;;5072300;28;20517;-69
2022/11/26 04:24:51;;;;;;;19.13;7.38;;;4.80;99.90;;;;;;5072370;28;20076;-69
2022/11/26 04:27:17;;;;;;;21.08;6.80;;;4.80;99.90;;;;;;5072301;28;20044;-69
2022/11/26 04:29:42;;;;;;;20.10;7.15;;;4.80;99.90;;;;;;5072272;28;20036;-69
2022/11/26 04:32:08;;;;;;;15.82;6.05;;;4.80;99.90;;;;;;5072232;28;20098;-69
2022/11/26 04:34:33;;;;;;;18.90;6.95;;;4.80;99.90;;;;;;5072236;28;20037;-69
2022/11/26 04:36:59;;;;;;;16.75;6.70;;;4.80;99.90;;;;;;5072191;28;20044;-69
2022/11/26 04:39:24;;;;;;;24.45;7.00;;;4.80;99.90;;;;;;5072186;28;20042;-69
2022/11/26 04:41:50;;;;;;;21.92;7.00;;;4.80;99.90;;;;;;5072131;28;20119;-69
2022/11/26 04:44:15;;;;;;;17.02;7.35;;;4.80;99.90;;;;;;5072301;28;20086;-69
2022/11/26 04:46:41;;;;;;;20.48;6.15;;;4.80;99.90;;;;;;5071515;28;20489;-69
2022/11/26 04:49:06;;;;;;;29.75;8.52;;;4.80;99.90;;;;;;5071934;28;20405;-69
2022/11/26 04:51:32;;;;;;;17.80;7.20;;;4.70;99.90;;;;;;5072009;28;20089;-69
2022/11/26 04:53:58;;;;;;;21.08;7.30;;;4.70;99.90;;;;;;5072163;28;20120;-69
2022/11/26 04:56:23;;;;;;;13.57;5.97;;;4.70;99.90;;;;;;5071994;28;20516;-69
2022/11/26 04:58:49;;;;;;;16.55;7.13;;;4.70;99.90;;;;;;5071964;28;20087;-69
2022/11/26 05:01:14;;;;;;;19.30;7.05;;;4.70;99.90;;;;;;5072169;28;20044;-68
2022/11/26 05:03:40;;;;;;;13.80;5.47;;;4.70;99.90;;;;;;5071779;28;20493;-69
2022/11/26 05:06:06;;;;;;;21.27;7.85;;;4.70;99.90;;;;;;5071842;28;20048;-69
2022/11/26 05:08:31;;;;;;;25.00;7.78;;;4.70;99.90;;;;;;5071751;28;20036;-69
2022/11/26 05:10:59;;;;;;;18.40;7.45;;;4.70;99.90;;;;;;5071819;28;20041;-69
2022/11/26 05:13:25;;;;;;;23.15;7.90;;;4.70;99.90;;;;;;5071697;28;20048;-69
2022/11/26 05:15:50;;;;;;;24.33;8.15;;;4.80;99.90;;;;;;5071745;28;20045;-69
2022/11/26 05:18:16;;;;;;;20.10;8.20;;;4.80;99.90;;;;;;5071712;28;20047;-69
2022/11/26 05:20:41;;;;;;;21.83;6.70;;;4.80;99.90;;;;;;5071990;28;20040;-69
2022/11/26 05:23:07;;;;;;;19.48;7.13;;;4.80;99.90;;;;;;5071611;28;20497;-69
2022/11/26 05:25:33;;;;;;;22.25;9.15;;;4.80;99.90;;;;;;5071971;28;20037;-69
2022/11/26 05:27:58;;;;;;;22.73;9.50;;;4.80;99.90;;;;;;5072785;28;20036;-69
2022/11/26 05:30:24;;;;;;;18.98;7.70;;;4.80;99.90;;;;;;5071628;28;20054;-69
2022/11/26 05:32:49;;;;;;;22.63;8.32;;;4.80;99.90;;;;;;5071775;28;20078;-69
2022/11/26 05:35:15;;;;;;;26.88;9.00;;;4.80;99.90;;;;;;5071798;28;20040;-69
2022/11/26 05:37:40;;;;;;;27.40;9.82;;;4.80;99.90;;;;;;5071519;28;20048;-69
2022/11/26 05:40:07;;;;;;;22.70;8.65;;;4.80;99.90;;;;;;5071479;28;20048;-69
2022/11/26 05:42:33;;;;;;;31.02;11.95;;;4.80;99.90;;;;;;5071427;28;20049;-69
2022/11/26 05:44:59;;;;;;;18.60;8.65;;;4.80;99.90;;;;;;5071324;28;20056;-69
2022/11/26 05:47:24;;;;;;;24.02;10.45;;;4.80;99.90;;;;;;5071423;28;20055;-69
2022/11/26 05:49:50;;;;;;;22.27;9.30;;;4.80;99.90;;;;;;5071393;28;20072;-69
2022/11/26 05:52:15;;;;;;;19.80;9.10;;;4.80;99.90;;;;;;5071351;28;20066;-69
2022/11/26 05:54:41;;;;;;;23.48;9.40;;;4.80;99.90;;;;;;5071367;28;20036;-69
2022/11/26 05:57:07;;;;;;;19.90;10.43;;;4.80;99.90;;;;;;5072971;28;20118;-69
2022/11/26 05:59:32;;;;;;;25.42;10.40;;;4.80;99.90;;;;;;5075157;28;20048;-69
2022/11/26 06:01:58;;;;;;;18.90;9.00;;;4.80;99.90;;;;;;5075353;28;20072;-69
2022/11/26 06:04:24;;;;;;;21.00;9.13;;;4.70;99.90;;;;;;5075004;28;20549;-69
2022/11/26 06:06:49;;;;;;;20.80;9.60;;;4.70;99.90;;;;;;5074911;28;20047;-69
2022/11/26 06:09:15;;;;;;;17.20;9.25;;;4.70;99.90;;;;;;5074901;28;20032;-69
2022/11/26 06:11:40;;;;;;;27.10;10.80;;;4.70;99.90;;;;;;5074930;28;20036;-69
2022/11/26 06:14:06;;;;;;;21.20;10.38;;;4.70;99.90;;;;;;5074814;28;20112;-68
2022/11/26 06:16:31;;;;;;;26.00;11.40;;;4.80;99.90;;;;;;5075079;28;20044;-68
2022/11/26 06:18:58;;;;;;;23.63;11.73;;;4.80;99.90;;;;;;5074804;28;20504;-68
2022/11/26 06:21:23;;;;;;;29.95;11.88;;;4.80;99.90;;;;;;5074745;28;20048;-68
2022/11/26 06:23:49;;;;;;;22.00;9.10;;;4.80;99.90;;;;;;5074888;28;20071;-69
2022/11/26 06:26:14;;;;;;;27.85;11.65;;;4.80;99.90;;;;;;5075905;28;20390;-69
2022/11/26 06:28:40;;;;;;;22.33;9.50;;;4.80;99.90;;;;;;5074553;28;20045;-69
2022/11/26 06:31:08;;;;;;;16.52;8.90;;;4.80;99.90;;;;;;5074563;28;20073;-69
2022/11/26 06:33:33;;;;;;;24.08;11.38;;;4.80;99.90;;;;;;5074721;28;20097;-69
2022/11/26 06:36:00;;;;;;;26.15;10.15;;;4.90;99.90;;;;;;5075311;28;20040;-69
2022/11/26 06:38:26;;;;;;;21.77;11.88;;;4.90;99.90;;;;;;5074410;28;20394;-69
2022/11/26 06:41:03;;;;;;;27.65;12.23;;;4.80;99.90;;;;;;5074617;28;20036;-69
2022/11/26 06:43:29;;;;;;;21.98;10.20;;;4.90;99.90;;;;;;5057613;28;20409;-69
2022/11/26 06:46:06;;;;;;;25.60;12.18;;;4.80;99.90;;;;;;5074234;28;20515;-68
2022/11/26 06:48:33;;;;;;;20.77;10.57;;;4.80;99.90;;;;;;5074258;28;20079;-68
2022/11/26 06:51:13;;;;;;;21.33;10.63;;;4.80;99.90;;;;;;5074217;28;20043;-68
2022/11/26 06:53:39;;;;;;;30.83;12.10;;;4.90;99.90;;;;;;5074063;28;20037;-68
2022/11/26 06:56:07;;;;;;;26.92;11.90;;;4.80;99.90;;;;;;5074124;28;20051;-68
2022/11/26 06:58:33;;;;;;;22.38;10.98;;;4.80;99.90;;;;;;5075143;28;20109;-68
2022/11/26 07:00:58;;;;;;;19.30;10.70;;;4.80;99.90;;;;;;5074042;28;20076;-68
2022/11/26 07:03:24;;;;;;;19.25;9.88;;;4.80;99.90;;;;;;5074171;28;20047;-69
2022/11/26 07:05:50;;;;;;;20.15;11.00;;;4.80;99.90;;;;;;5075437;28;20059;-69
2022/11/26 07:08:16;;;;;;;22.27;11.25;;;4.80;99.90;;;;;;5072999;28;20052;-69
2022/11/26 07:10:42;;;;;;;25.63;11.70;;;4.80;99.90;;;;;;5074093;28;20040;-68
2022/11/26 07:13:07;;;;;;;19.65;11.45;;;4.70;99.90;;;;;;5073755;28;20123;-69
2022/11/26 07:15:33;;;;;;;19.25;11.27;;;4.70;99.90;;;;;;5073991;28;20045;-69
2022/11/26 07:17:58;;;;;;;24.05;10.50;;;4.70;99.90;;;;;;5073719;28;20044;-69
2022/11/26 07:20:25;;;;;;;27.17;12.68;;;4.70;99.90;;;;;;5073700;28;20088;-69
2022/11/26 07:22:52;;;;;;;21.73;10.38;;;4.70;99.90;;;;;;5073535;28;20044;-69
2022/11/26 07:25:18;;;;;;;23.73;11.77;;;4.70;99.90;;;;;;5073821;28;20040;-69
2022/11/26 07:27:44;;;;;;;28.30;12.32;;;4.70;99.90;;;;;;5073472;28;20059;-69
2022/11/26 07:30:11;;;;;;;23.15;10.35;;;4.70;99.90;;;;;;5073457;28;20460;-69
2022/11/26 07:32:37;;;;;;;24.25;11.73;;;4.70;99.90;;;;;;5073304;28;20032;-69
2022/11/26 07:35:04;;;;;;;19.90;10.52;;;4.70;99.90;;;;;;5073629;28;20101;-68
2022/11/26 07:37:31;;;;;;;26.00;12.70;;;4.70;99.90;;;;;;5073333;28;20044;-68
2022/11/26 07:39:57;;;;;;;23.35;11.18;;;4.80;99.90;;;;;;5073276;28;20406;-68
2022/11/26 07:42:22;;;;;;;26.10;12.68;;;4.80;99.90;;;;;;5073103;28;20055;-69
2022/11/26 07:44:48;;;;;;;21.88;12.63;;;4.80;99.90;;;;;;5073042;28;20049;-69
2022/11/26 07:47:13;;;;;;;26.95;13.38;;;4.80;99.90;;;;;;5073084;28;20456;-68
2022/11/26 07:49:39;;;;;;;25.65;12.15;;;4.80;99.90;;;;;;5073079;28;20045;-68
2022/11/26 07:52:04;;;;;;;31.45;13.60;;;4.80;99.90;;;;;;5073005;28;20051;-68
2022/11/26 07:54:30;;;;;;;29.60;12.55;;;4.80;99.90;;;;;;5072825;28;20036;-69
2022/11/26 07:56:55;;;;;;;26.05;11.73;;;4.80;99.90;;;;;;5072914;28;20036;-69
2022/11/26 07:59:21;;;;;;;31.45;12.32;;;4.80;99.90;;;;;;5072856;28;20041;-69
2022/11/26 08:01:47;;;;;;;30.38;12.32;;;4.90;99.90;;;;;;5072793;28;20032;-69
2022/11/26 08:04:12;;;;;;;30.67;13.32;;;4.90;99.90;;;;;;5072701;28;20040;-69
2022/11/26 08:06:38;;;;;;;27.23;12.18;;;4.90;99.90;;;;;;5073028;28;20033;-68
2022/11/26 08:09:04;;;;;;;29.20;11.50;;;5.00;99.90;;;;;;5072604;28;20492;-68
2022/11/26 08:11:31;;;;;;;32.10;11.57;;;5.00;99.90;;;;;;5072647;28;20036;-69
2022/11/26 08:13:59;;;;;;;25.00;11.02;;;5.10;99.90;;;;;;5072549;28;20086;-68
2022/11/26 08:16:25;;;;;;;23.83;10.75;;;5.10;99.90;;;;;;5072527;28;20459;-70
2022/11/26 08:18:55;;;;;;;31.30;11.55;;;5.20;99.90;;;;;;5073035;28;20052;-68
2022/11/26 08:21:21;;;;;;;32.38;11.95;;;5.30;99.90;;;;;;5072476;28;20044;-68
2022/11/26 08:23:47;;;;;;;27.20;11.77;;;5.30;99.90;;;;;;5072690;28;20497;-68
2022/11/26 08:26:14;;;;;;;26.27;10.65;;;5.30;99.90;;;;;;5072417;28;20055;-69
2022/11/26 08:28:44;;;;;;;23.55;10.00;;;5.30;99.90;;;;;;5072293;28;20052;-68
2022/11/26 08:31:11;;;;;;;28.23;11.68;;;5.40;99.90;;;;;;5072252;28;20043;-68
2022/11/26 08:33:38;;;;;;;27.52;11.63;;;5.40;99.90;;;;;;5072410;28;20048;-68
2022/11/26 08:36:04;;;;;;;32.15;12.05;;;5.50;99.90;;;;;;5072202;28;20044;-68
2022/11/26 08:38:29;;;;;;;29.95;11.73;;;5.50;99.90;;;;;;5072506;28;20045;-68
2022/11/26 08:41:06;;;;;;;33.70;12.85;;;5.60;99.90;;;;;;5072324;28;20090;-68
2022/11/26 08:43:34;;;;;;;26.48;11.52;;;5.60;99.90;;;;;;5072305;28;20543;-68
2022/11/26 08:45:59;;;;;;;29.02;12.50;;;5.70;99.90;;;;;;5072131;28;20045;-68
2022/11/26 08:48:28;;;;;;;26.52;11.93;;;5.60;99.90;;;;;;5072735;28;20044;-68
2022/11/26 08:51:05;;;;;;;31.33;12.52;;;5.70;99.90;;;;;;5072389;28;20040;-66
2022/11/26 08:53:33;;;;;;;31.17;12.10;;;5.80;99.90;;;;;;5071896;28;20046;-66
2022/11/26 08:56:00;;;;;;;33.28;12.75;;;5.70;99.90;;;;;;5072281;28;20117;-66
2022/11/26 08:58:26;;;;;;;38.85;14.00;;;5.80;99.90;;;;;;5072205;28;20049;-66
2022/11/26 09:00:51;;;;;;;26.85;12.45;;;5.80;99.90;;;;;;5073141;28;20047;-66
2022/11/26 09:03:17;;;;;;;32.53;12.98;;;5.90;99.90;;;;;;5073116;28;20111;-66
2022/11/26 09:05:42;;;;;;;35.00;11.95;;;5.90;99.90;;;;;;5071874;28;20095;-66
2022/11/26 09:08:08;;;;;;;30.75;12.63;;;6.00;99.90;;;;;;5071802;28;20409;-66
2022/11/26 09:10:34;;;;;;;29.35;12.15;;;6.00;99.90;;;;;;5071825;28;20045;-66
2022/11/26 09:12:59;;;;;;;32.72;12.65;;;6.10;99.90;;;;;;5072990;28;20085;-66
2022/11/26 09:15:25;;;;;;;30.42;12.57;;;6.10;99.90;;;;;;5071822;28;20041;-66
2022/11/26 09:17:50;;;;;;;31.08;11.60;;;6.20;99.90;;;;;;5072015;28;20048;-66
2022/11/26 09:20:16;;;;;;;29.90;12.13;;;6.20;99.90;;;;;;5072014;28;20370;-66
2022/11/26 09:22:41;;;;;;;33.60;12.25;;;6.20;99.90;;;;;;5071694;28;20578;-66
2022/11/26 09:25:08;;;;;;;31.58;12.45;;;6.30;99.90;;;;;;5071658;28;20054;-66
2022/11/26 09:27:33;;;;;;;33.97;14.23;;;6.30;99.90;;;;;;5071631;28;20044;-66
2022/11/26 09:29:59;;;;;;;27.35;13.68;;;6.40;99.90;;;;;;5071653;28;20116;-66
2022/11/26 09:32:24;;;;;;;35.28;12.10;;;6.40;99.90;;;;;;5073795;28;20052;-68
2022/11/26 09:34:51;;;;;;;36.08;13.07;;;6.40;99.90;;;;;;5075633;28;20049;-68
2022/11/26 09:37:17;;;;;;;31.38;12.35;;;6.50;99.90;;;;;;5075652;28;20036;-68
2022/11/26 09:39:43;;;;;;;32.33;12.45;;;6.50;99.90;;;;;;5075863;28;20040;-68
2022/11/26 09:42:36;;;;;;;33.90;13.60;;;6.50;99.90;;;;;;5075550;28;20444;-69
2022/11/26 09:45:11;;;;;;;28.92;13.13;;;6.60;99.90;;;;;;5075545;28;20048;-68
2022/11/26 09:47:40;;;;;;;33.88;11.80;;;6.70;99.90;;;;;;5075587;28;20048;-68
2022/11/26 09:50:11;;;;;;;37.70;13.52;;;6.70;99.90;;;;;;5075569;28;20086;-68
2022/11/26 09:52:42;;;;;;;31.23;13.55;;;6.80;99.90;;;;;;5075175;28;20489;-69
2022/11/26 09:55:25;;;;;;;34.10;13.18;;;6.80;99.90;;;;;;5075490;28;20047;-69
2022/11/26 09:58:05;;;;;;;33.10;13.63;;;6.90;99.90;;;;;;5075216;28;20133;-68
2022/11/26 10:00:44;;;;;;;33.35;14.80;;;6.90;99.90;;;;;;5075366;28;20048;-68
2022/11/26 10:03:16;;;;;;;29.25;14.15;;;7.00;99.90;;;;;;5075381;28;20382;-69
2022/11/26 10:06:00;;;;;;;29.80;13.40;;;7.00;99.90;;;;;;5075161;28;20514;-69
2022/11/26 10:08:36;;;;;;;38.50;14.65;;;7.10;99.90;;;;;;5075001;28;20078;-69
2022/11/26 10:11:07;;;;;;;38.78;13.80;;;7.10;99.90;;;;;;5076777;28;20481;-69
2022/11/26 10:13:48;;;;;;;29.65;13.68;;;7.20;99.90;;;;;;5075176;28;20040;-69
2022/11/26 10:16:17;;;;;;;31.90;14.80;;;7.20;99.90;;;;;;5075146;28;20049;-68
2022/11/26 10:19:16;;;;;;;37.53;15.15;;;7.20;99.90;;;;;;5074811;28;20043;-68
2022/11/26 10:21:49;;;;;;;31.23;14.45;;;7.30;99.90;;;;;;5076076;28;20409;-68
2022/11/26 10:24:27;;;;;;;34.20;14.70;;;7.30;99.90;;;;;;5074969;28;20059;-69
2022/11/26 10:26:54;;;;;;;35.42;14.50;;;7.40;99.90;;;;;;5074657;28;20485;-68
2022/11/26 10:29:24;;;;;;;40.38;14.80;;;7.40;99.90;;;;;;5075769;28;20119;-68
2022/11/26 10:31:55;;;;;;;31.38;14.25;;;7.50;99.90;;;;;;5074852;28;20166;-68
2022/11/26 10:34:37;;;;;;;36.50;14.90;;;7.50;99.90;;;;;;5074806;28;20512;-68
2022/11/26 10:37:03;;;;;;;35.20;14.88;;;7.50;99.90;;;;;;5074464;28;20378;-68
2022/11/26 10:39:29;;;;;;;34.13;15.25;;;7.50;99.90;;;;;;5076262;28;20040;-68
2022/11/26 10:41:55;;;;;;;32.25;14.90;;;7.60;99.90;;;;;;5074368;28;20417;-68
2022/11/26 10:44:34;;;;;;;28.83;15.00;;;7.60;99.90;;;;;;5073051;28;20044;-68
2022/11/26 10:47:18;;;;;;;39.45;16.63;;;7.60;99.90;;;;;;5057849;28;20094;-68
2022/11/26 10:49:43;;;;;;;42.50;16.17;;;7.60;99.90;;;;;;5074262;28;20041;-68
2022/11/26 10:52:09;;;;;;;34.67;15.13;;;7.60;99.90;;;;;;5074495;28;20066;-68
2022/11/26 10:54:36;;;;;;;30.80;15.80;;;7.70;99.90;;;;;;5074478;28;20367;-69
2022/11/26 10:57:08;;;;;;;40.97;17.25;;;7.70;99.90;;;;;;5074293;28;20043;-68
2022/11/26 10:59:39;;;;;;;32.30;16.08;;;7.70;99.90;;;;;;5074130;28;20036;-68
2022/11/26 11:02:38;;;;;;;35.30;16.92;;;7.70;99.90;;;;;;5074030;28;20087;-68
2022/11/26 11:05:07;;;;;;;36.67;17.13;;;7.80;99.90;;;;;;5073981;28;20040;-69
2022/11/26 11:07:32;;;;;;;37.20;17.75;;;7.70;99.90;;;;;;5074052;28;20046;-68
2022/11/26 11:10:06;;;;;;;36.90;17.90;;;7.80;99.90;;;;;;5073869;28;20040;-68
2022/11/26 11:12:32;;;;;;;37.42;19.85;;;7.80;99.90;;;;;;5073810;28;20044;-68
2022/11/26 11:15:20;;;;;;;37.58;19.00;;;7.80;99.90;;;;;;5074050;28;20090;-69
2022/11/26 11:18:13;;;;;;;48.03;19.70;;;7.80;99.90;;;;;;5073785;28;20110;-68
2022/11/26 11:20:41;;;;;;;48.63;21.60;;;7.80;99.90;;;;;;5073236;28;20052;-69
2022/11/26 11:23:10;;;;;;;51.22;22.27;;;7.90;99.90;;;;;;5073585;28;20123;-69
2022/11/26 11:25:42;;;;;;;45.13;21.95;;;7.90;99.90;;;;;;5073800;28;20071;-69
2022/11/26 11:28:11;;;;;;;50.83;24.20;;;7.90;99.90;;;;;;5057042;28;20067;-69
2022/11/26 11:30:37;;;;;;;50.92;24.50;;;7.90;99.90;;;;;;5073738;28;20075;-69
2022/11/26 11:33:32;;;;;;;46.10;24.33;;;7.90;99.90;;;;;;5073357;28;20051;-69
2022/11/26 11:35:59;;;;;;;49.50;26.25;;;8.00;99.90;;;;;;5016121;28;20045;-69
2022/11/26 11:38:29;;;;;;;49.13;25.08;;;7.90;99.90;;;;;;5016098;28;20107;-69
2022/11/26 11:40:55;;;;;;;50.05;25.60;;;7.90;99.90;;;;;;5016424;28;20053;-69
2022/11/26 11:43:22;;;;;;;53.42;25.23;;;7.90;99.90;;;;;;5015925;28;20548;-69
2022/11/26 11:45:58;;;;;;;46.15;24.02;;;7.90;99.90;;;;;;4999368;28;20054;-69
2022/11/26 11:48:36;;;;;;;53.63;24.58;;;8.00;99.90;;;;;;5015837;28;20548;-69
2022/11/26 11:51:22;;;;;;;46.85;24.02;;;8.00;99.90;;;;;;5015843;28;20054;-69
2022/11/26 11:54:21;;;;;;;46.55;23.35;;;8.00;99.90;;;;;;5015693;28;20057;-69
2022/11/26 11:57:04;;;;;;;41.53;22.20;;;8.10;99.90;;;;;;5012056;28;20053;-69
2022/11/26 11:59:46;;;;;;;55.80;22.85;;;8.10;99.90;;;;;;5016102;28;20049;-69
2022/11/26 12:02:44;;;;;;;51.53;23.38;;;8.10;99.90;;;;;;5015872;28;20068;-69
2022/11/26 12:05:28;;;;;;;48.58;22.45;;;8.20;99.90;;;;;;5015783;28;20126;-68
2022/11/26 12:08:16;;;;;;;45.72;23.40;;;8.20;99.90;;;;;;5015555;28;20049;-68
2022/11/26 12:11:10;;;;;;;47.47;21.90;;;8.20;99.90;;;;;;5015525;28;20046;-68
2022/11/26 12:13:48;;;;;;;48.55;21.58;;;8.20;99.90;;;;;;5073063;28;20489;-68
2022/11/26 12:16:18;;;;;;;41.70;21.38;;;8.30;99.90;;;;;;5072915;28;20400;-68
2022/11/26 12:19:11;;;;;;;61.10;21.92;;;8.30;99.90;;;;;;5072501;28;20048;-68
2022/11/26 12:21:43;;;;;;;47.63;20.98;;;8.30;99.90;;;;;;5072447;28;20505;-68
2022/11/26 12:24:21;;;;;;;43.67;19.75;;;8.30;99.90;;;;;;5072383;28;20055;-69
2022/11/26 12:26:55;;;;;;;49.25;20.48;;;8.30;99.90;;;;;;5072476;28;20048;-69
2022/11/26 12:29:24;;;;;;;37.30;19.23;;;8.40;99.90;;;;;;5055616;28;20047;-69
2022/11/26 12:31:58;;;;;;;33.88;18.17;;;8.40;99.90;;;;;;5072570;28;20123;-69
2022/11/26 12:34:31;;;;;;;41.80;19.63;;;8.40;99.90;;;;;;5072518;28;20115;-69
2022/11/26 12:37:02;;;;;;;;;;;8.40;99.90;;;;;;5072922;28;20040;-69
2022/11/26 12:39:35;;;;;;;37.45;18.70;;;8.40;99.90;;;;;;5072467;28;19923;-69
2022/11/26 12:42:14;;;;;;;37.58;18.60;;;8.40;99.90;;;;;;5072217;28;20090;-68
2022/11/26 12:44:42;;;;;;;45.55;18.38;;;8.50;99.90;;;;;;5072071;28;20069;-72
2022/11/26 12:47:25;;;;;;;44.58;18.08;;;8.50;99.90;;;;;;5071964;28;20085;-72
2022/11/26 12:50:31;;;;;;;36.60;17.27;;;8.50;99.90;;;;;;5072127;28;20040;-72
2022/11/26 12:53:06;;;;;;;40.95;17.42;;;8.60;99.90;;;;;;5015066;28;20178;-72
2022/11/26 12:56:05;;;;;;;36.95;18.25;;;8.60;99.90;;;;;;5014736;28;20049;-72